DAL763 KATL-KLAX
Flight info
| Callsign | DAL763 |
|---|---|
| Flight time | 4h 15m |
| Altitude | 40000 |
| Route | NASSA2 CHOOK HAB PBF PGO DWINE J14 IRW EZEEE FTI SAF GUP FLG J10 HIPPI GABBL HLYWD1 |
| Aircraft | A359/H-SDE2E3GHIJ3J4J5LM1ORWXY/LB1D1 |
Departure
| Time | 2026-05-08 00:14 |
|---|---|
| Airport | Hartsfield Jackson Atlanta International Airport (KATL) |
Arrival
| Time | 2026-05-08 04:29 |
|---|---|
| Airport | Los Angeles International Airport (KLAX) |
| Time | Latitude | Longitude | Altitude | Speed | Heading |
|---|---|---|---|---|---|
| 2026-05-07 23:51 | 33.64378 | -84.44198 | 1017 ft | 0 kts | 270° |
| 2026-05-08 00:00 | 33.64378 | -84.44194 | 1013 ft | 3 kts | 270° |
| 2026-05-08 00:01 | 33.64378 | -84.44164 | 1010 ft | 2 kts | 270° |
| 2026-05-08 00:01 | 33.64378 | -84.44139 | 1015 ft | 4 kts | 287° |
| 2026-05-08 00:01 | 33.64372 | -84.44121 | 1013 ft | 4 kts | 334° |
| 2026-05-08 00:01 | 33.64354 | -84.44117 | 1014 ft | 4 kts | 358° |
| 2026-05-08 00:02 | 33.64330 | -84.44116 | 1013 ft | 1 kts | 358° |
| 2026-05-08 00:04 | 33.64345 | -84.44117 | 1013 ft | 6 kts | 356° |
| 2026-05-08 00:04 | 33.64369 | -84.44118 | 1013 ft | 0 kts | 358° |
| 2026-05-08 00:07 | 33.64402 | -84.44118 | 1013 ft | 10 kts | 4° |
| 2026-05-08 00:07 | 33.64479 | -84.44061 | 1013 ft | 18 kts | 55° |
| 2026-05-08 00:07 | 33.64517 | -84.43886 | 1015 ft | 26 kts | 79° |
| 2026-05-08 00:08 | 33.64541 | -84.43657 | 1016 ft | 28 kts | 87° |
| 2026-05-08 00:08 | 33.64545 | -84.43417 | 1017 ft | 29 kts | 89° |
| 2026-05-08 00:08 | 33.64543 | -84.43235 | 1042 ft | 23 kts | 89° |
| 2026-05-08 00:08 | 33.64546 | -84.43009 | 1042 ft | 31 kts | 90° |
| 2026-05-08 00:09 | 33.64542 | -84.42720 | 1042 ft | 38 kts | 90° |
| 2026-05-08 00:09 | 33.64542 | -84.42384 | 1041 ft | 41 kts | 89° |
| 2026-05-08 00:09 | 33.64569 | -84.42052 | 1041 ft | 39 kts | 76° |
| 2026-05-08 00:09 | 33.64572 | -84.41759 | 1041 ft | 31 kts | 85° |
| 2026-05-08 00:10 | 33.64576 | -84.41524 | 1042 ft | 27 kts | 90° |
| 2026-05-08 00:10 | 33.64580 | -84.41313 | 1041 ft | 23 kts | 88° |
| 2026-05-08 00:10 | 33.64581 | -84.41141 | 1042 ft | 18 kts | 94° |
| 2026-05-08 00:10 | 33.64576 | -84.41016 | 1040 ft | 16 kts | 92° |
| 2026-05-08 00:11 | 33.64572 | -84.40898 | 1039 ft | 14 kts | 92° |
| 2026-05-08 00:11 | 33.64568 | -84.40813 | 1041 ft | 10 kts | 93° |
| 2026-05-08 00:11 | 33.64564 | -84.40718 | 1041 ft | 13 kts | 93° |
| 2026-05-08 00:11 | 33.64570 | -84.40608 | 1041 ft | 10 kts | 65° |
| 2026-05-08 00:12 | 33.64572 | -84.40604 | 1041 ft | 0 kts | 53° |
| 2026-05-08 00:12 | 33.64573 | -84.40604 | 1041 ft | 1 kts | 53° |
| 2026-05-08 00:13 | 33.64617 | -84.40584 | 1040 ft | 13 kts | 357° |
| 2026-05-08 00:13 | 33.64678 | -84.40688 | 1039 ft | 22 kts | 270° |
| 2026-05-08 00:13 | 33.64682 | -84.40921 | 1042 ft | 45 kts | 269° |
| 2026-05-08 00:13 | 33.64679 | -84.41583 | 1043 ft | 112 kts | 269° |
| 2026-05-08 00:14 | 33.64671 | -84.42731 | 1144 ft | 157 kts | 269° |
| 2026-05-08 00:14 | 33.64617 | -84.44015 | 1922 ft | 148 kts | 271° |
| 2026-05-08 00:14 | 33.64634 | -84.45221 | 2714 ft | 143 kts | 278° |
| 2026-05-08 00:14 | 33.64824 | -84.46477 | 3084 ft | 164 kts | 284° |
| 2026-05-08 00:15 | 33.65096 | -84.47897 | 3348 ft | 186 kts | 285° |
| 2026-05-08 00:15 | 33.65403 | -84.49502 | 3637 ft | 206 kts | 284° |
| 2026-05-08 00:15 | 33.65723 | -84.51225 | 3983 ft | 224 kts | 283° |
| 2026-05-08 00:15 | 33.66071 | -84.53131 | 4415 ft | 241 kts | 283° |
| 2026-05-08 00:16 | 33.66431 | -84.55124 | 5073 ft | 246 kts | 282° |
| 2026-05-08 00:16 | 33.66795 | -84.57127 | 5917 ft | 244 kts | 281° |
| 2026-05-08 00:16 | 33.67152 | -84.59108 | 6810 ft | 242 kts | 281° |
| 2026-05-08 00:16 | 33.67490 | -84.61088 | 7651 ft | 242 kts | 280° |
| 2026-05-08 00:17 | 33.67823 | -84.63076 | 8488 ft | 243 kts | 280° |
| 2026-05-08 00:17 | 33.68049 | -84.64423 | 9068 ft | 243 kts | 280° |
| 2026-05-08 00:17 | 33.68384 | -84.66420 | 9898 ft | 244 kts | 280° |
| 2026-05-08 00:17 | 33.68720 | -84.68412 | 10520 ft | 253 kts | 280° |
| 2026-05-08 00:18 | 33.69086 | -84.70586 | 10850 ft | 272 kts | 280° |
| 2026-05-08 00:18 | 33.69468 | -84.72854 | 11135 ft | 289 kts | 280° |
| 2026-05-08 00:18 | 33.69859 | -84.75292 | 11466 ft | 304 kts | 278° |
| 2026-05-08 00:18 | 33.69998 | -84.77840 | 12085 ft | 307 kts | 271° |
| 2026-05-08 00:19 | 33.70000 | -84.80403 | 12841 ft | 307 kts | 271° |
| 2026-05-08 00:19 | 33.69989 | -84.82965 | 13603 ft | 307 kts | 271° |
| 2026-05-08 00:19 | 33.69981 | -84.85529 | 14282 ft | 307 kts | 271° |
| 2026-05-08 00:19 | 33.69975 | -84.88098 | 14855 ft | 309 kts | 271° |
| 2026-05-08 00:20 | 33.69969 | -84.90695 | 15390 ft | 312 kts | 270° |
| 2026-05-08 00:20 | 33.69964 | -84.93306 | 15991 ft | 314 kts | 270° |
| 2026-05-08 00:20 | 33.69957 | -84.95941 | 16560 ft | 316 kts | 270° |
| 2026-05-08 00:20 | 33.69950 | -84.98594 | 17154 ft | 318 kts | 270° |
| 2026-05-08 00:21 | 33.69942 | -85.01259 | 17751 ft | 320 kts | 270° |
| 2026-05-08 00:21 | 33.69934 | -85.03936 | 18324 ft | 322 kts | 269° |
| 2026-05-08 00:21 | 33.69925 | -85.06642 | 18810 ft | 324 kts | 269° |
| 2026-05-08 00:21 | 33.69915 | -85.09320 | 19283 ft | 326 kts | 270° |
| 2026-05-08 00:22 | 33.69905 | -85.12054 | 19764 ft | 329 kts | 270° |
| 2026-05-08 00:22 | 33.69894 | -85.14846 | 20242 ft | 331 kts | 270° |
| 2026-05-08 00:22 | 33.69883 | -85.17581 | 20731 ft | 333 kts | 270° |
| 2026-05-08 00:22 | 33.69871 | -85.20370 | 21222 ft | 335 kts | 270° |
| 2026-05-08 00:23 | 33.69858 | -85.23178 | 21700 ft | 337 kts | 270° |
| 2026-05-08 00:23 | 33.69838 | -85.25997 | 22176 ft | 339 kts | 269° |
| 2026-05-08 00:23 | 33.69803 | -85.28846 | 22648 ft | 341 kts | 269° |
| 2026-05-08 00:23 | 33.69768 | -85.31707 | 23100 ft | 344 kts | 269° |
| 2026-05-08 00:24 | 33.69734 | -85.34598 | 23553 ft | 347 kts | 269° |
| 2026-05-08 00:24 | 33.69700 | -85.37501 | 23980 ft | 349 kts | 269° |
| 2026-05-08 00:24 | 33.69666 | -85.40427 | 24389 ft | 351 kts | 269° |
| 2026-05-08 00:24 | 33.69631 | -85.43369 | 24811 ft | 353 kts | 269° |
| 2026-05-08 00:25 | 33.69595 | -85.46327 | 25265 ft | 355 kts | 269° |
| 2026-05-08 00:25 | 33.69558 | -85.49301 | 25725 ft | 357 kts | 269° |
| 2026-05-08 00:25 | 33.69521 | -85.52294 | 26183 ft | 360 kts | 269° |
| 2026-05-08 00:25 | 33.69483 | -85.55311 | 26659 ft | 362 kts | 269° |
| 2026-05-08 00:26 | 33.69444 | -85.58302 | 27155 ft | 364 kts | 269° |
| 2026-05-08 00:26 | 33.69403 | -85.61354 | 27614 ft | 367 kts | 269° |
| 2026-05-08 00:26 | 33.69361 | -85.64431 | 28068 ft | 370 kts | 269° |
| 2026-05-08 00:26 | 33.69319 | -85.67527 | 28529 ft | 372 kts | 269° |
| 2026-05-08 00:27 | 33.69275 | -85.70644 | 28976 ft | 375 kts | 269° |
| 2026-05-08 00:27 | 33.69230 | -85.73785 | 29370 ft | 378 kts | 269° |
| 2026-05-08 00:27 | 33.69185 | -85.76960 | 29835 ft | 380 kts | 268° |
| 2026-05-08 00:27 | 33.69138 | -85.80142 | 30253 ft | 383 kts | 268° |
| 2026-05-08 00:28 | 33.69090 | -85.83346 | 30616 ft | 385 kts | 268° |
| 2026-05-08 00:28 | 33.69040 | -85.86561 | 30956 ft | 387 kts | 268° |
| 2026-05-08 00:28 | 33.68990 | -85.89803 | 31283 ft | 389 kts | 268° |
| 2026-05-08 00:28 | 33.68938 | -85.93058 | 31602 ft | 391 kts | 268° |
| 2026-05-08 00:29 | 33.68886 | -85.96328 | 31918 ft | 393 kts | 268° |
| 2026-05-08 00:29 | 33.68832 | -85.99625 | 32208 ft | 395 kts | 268° |
| 2026-05-08 00:29 | 33.68830 | -86.02924 | 32492 ft | 397 kts | 271° |
| 2026-05-08 00:29 | 33.69127 | -86.06233 | 32809 ft | 400 kts | 277° |
| 2026-05-08 00:30 | 33.69685 | -86.09506 | 33269 ft | 399 kts | 279° |
| 2026-05-08 00:30 | 33.70277 | -86.12747 | 33721 ft | 397 kts | 279° |
| 2026-05-08 00:30 | 33.70856 | -86.15935 | 34120 ft | 395 kts | 279° |
| 2026-05-08 00:30 | 33.71439 | -86.19156 | 34488 ft | 394 kts | 279° |
| 2026-05-08 00:31 | 33.72016 | -86.22359 | 34874 ft | 391 kts | 279° |
| 2026-05-08 00:31 | 33.72588 | -86.25540 | 35262 ft | 389 kts | 278° |
| 2026-05-08 00:31 | 33.73155 | -86.28706 | 35658 ft | 386 kts | 278° |
| 2026-05-08 00:31 | 33.73718 | -86.31852 | 36030 ft | 384 kts | 278° |
| 2026-05-08 00:32 | 33.74278 | -86.34992 | 36391 ft | 383 kts | 278° |
| 2026-05-08 00:32 | 33.74834 | -86.38109 | 36750 ft | 381 kts | 278° |
| 2026-05-08 00:32 | 33.75387 | -86.41218 | 37086 ft | 379 kts | 278° |
| 2026-05-08 00:32 | 33.75939 | -86.44322 | 37444 ft | 378 kts | 278° |
| 2026-05-08 00:33 | 33.76485 | -86.47404 | 37790 ft | 376 kts | 278° |
| 2026-05-08 00:33 | 33.77027 | -86.50460 | 38136 ft | 374 kts | 278° |
| 2026-05-08 00:33 | 33.77567 | -86.53519 | 38459 ft | 372 kts | 278° |
| 2026-05-08 00:33 | 33.78104 | -86.56557 | 38753 ft | 371 kts | 278° |
| 2026-05-08 00:34 | 33.78638 | -86.59586 | 38972 ft | 370 kts | 278° |
| 2026-05-08 00:34 | 33.79171 | -86.62616 | 39147 ft | 371 kts | 278° |
| 2026-05-08 00:34 | 33.79696 | -86.65608 | 39345 ft | 370 kts | 278° |
| 2026-05-08 00:34 | 33.80228 | -86.68640 | 39521 ft | 371 kts | 278° |
| 2026-05-08 00:35 | 33.80761 | -86.71683 | 39693 ft | 371 kts | 278° |
| 2026-05-08 00:35 | 33.81292 | -86.74714 | 39870 ft | 370 kts | 278° |
| 2026-05-08 00:35 | 33.81822 | -86.77750 | 40013 ft | 371 kts | 278° |
| 2026-05-08 00:35 | 33.82352 | -86.80785 | 40038 ft | 371 kts | 278° |
| 2026-05-08 00:36 | 33.83409 | -86.86856 | 40038 ft | 370 kts | 278° |
| 2026-05-08 00:36 | 33.84455 | -86.92886 | 40029 ft | 370 kts | 278° |
| 2026-05-08 00:37 | 33.85504 | -86.98948 | 40035 ft | 370 kts | 278° |
| 2026-05-08 00:38 | 33.87072 | -87.08047 | 40041 ft | 370 kts | 278° |
| 2026-05-08 00:38 | 33.88112 | -87.14108 | 40053 ft | 370 kts | 278° |
| 2026-05-08 00:39 | 33.89150 | -87.20172 | 40062 ft | 370 kts | 278° |
| 2026-05-08 00:39 | 33.90185 | -87.26239 | 40067 ft | 369 kts | 278° |
| 2026-05-08 00:40 | 33.91216 | -87.32304 | 40063 ft | 369 kts | 278° |
| 2026-05-08 00:40 | 33.92242 | -87.38355 | 40067 ft | 369 kts | 278° |
| 2026-05-08 00:41 | 33.93409 | -87.44379 | 40061 ft | 372 kts | 283° |
| 2026-05-08 00:41 | 33.95566 | -87.50061 | 40037 ft | 379 kts | 291° |
| 2026-05-08 00:42 | 33.98188 | -87.55585 | 40045 ft | 380 kts | 292° |
| 2026-05-08 00:42 | 34.00856 | -87.61090 | 40028 ft | 380 kts | 292° |
| 2026-05-08 00:43 | 34.03501 | -87.66596 | 40024 ft | 379 kts | 292° |
| 2026-05-08 00:43 | 34.06126 | -87.72102 | 40017 ft | 379 kts | 292° |
| 2026-05-08 00:44 | 34.08746 | -87.77619 | 40018 ft | 378 kts | 292° |
| 2026-05-08 00:44 | 34.11358 | -87.83130 | 40023 ft | 378 kts | 292° |
| 2026-05-08 00:45 | 34.13963 | -87.88632 | 40024 ft | 378 kts | 292° |
| 2026-05-08 00:45 | 34.16568 | -87.94138 | 40024 ft | 377 kts | 292° |
| 2026-05-08 00:46 | 34.18824 | -87.99787 | 40022 ft | 370 kts | 284° |
| 2026-05-08 00:46 | 34.19949 | -88.05726 | 40024 ft | 364 kts | 274° |
| 2026-05-08 00:47 | 34.20229 | -88.11843 | 40031 ft | 364 kts | 271° |
| 2026-05-08 00:47 | 34.20372 | -88.17949 | 40029 ft | 364 kts | 271° |
| 2026-05-08 00:48 | 34.20509 | -88.24063 | 40032 ft | 364 kts | 271° |
| 2026-05-08 00:48 | 34.20660 | -88.30177 | 40033 ft | 364 kts | 271° |
| 2026-05-08 00:49 | 34.20816 | -88.36300 | 40034 ft | 364 kts | 271° |
| 2026-05-08 00:49 | 34.20971 | -88.42417 | 40038 ft | 364 kts | 271° |
| 2026-05-08 00:50 | 34.21121 | -88.48492 | 40046 ft | 364 kts | 271° |
| 2026-05-08 00:50 | 34.21268 | -88.54613 | 40045 ft | 364 kts | 271° |
| 2026-05-08 00:51 | 34.21412 | -88.60731 | 40051 ft | 364 kts | 271° |
| 2026-05-08 00:51 | 34.21553 | -88.66854 | 40056 ft | 364 kts | 270° |
| 2026-05-08 00:52 | 34.21691 | -88.72974 | 40053 ft | 364 kts | 270° |
| 2026-05-08 00:52 | 34.21826 | -88.79098 | 40056 ft | 364 kts | 270° |
| 2026-05-08 00:53 | 34.21959 | -88.85221 | 40056 ft | 364 kts | 270° |
| 2026-05-08 00:53 | 34.22087 | -88.91305 | 40056 ft | 364 kts | 270° |
| 2026-05-08 00:54 | 34.22213 | -88.97428 | 40054 ft | 364 kts | 270° |
| 2026-05-08 00:54 | 34.22336 | -89.03543 | 40054 ft | 364 kts | 270° |
| 2026-05-08 00:55 | 34.22456 | -89.09661 | 40053 ft | 364 kts | 270° |
| 2026-05-08 00:55 | 34.22572 | -89.15733 | 40051 ft | 363 kts | 270° |
| 2026-05-08 00:56 | 34.22685 | -89.21825 | 40059 ft | 363 kts | 270° |
| 2026-05-08 00:56 | 34.22783 | -89.27234 | 40063 ft | 363 kts | 270° |
| 2026-05-08 00:57 | 34.22865 | -89.31867 | 40068 ft | 363 kts | 270° |
| 2026-05-08 00:57 | 34.22913 | -89.34607 | 40070 ft | 363 kts | 270° |
| 2026-05-08 00:58 | 34.23016 | -89.40547 | 40070 ft | 364 kts | 270° |
| 2026-05-08 00:58 | 34.23109 | -89.46236 | 40077 ft | 363 kts | 270° |
| 2026-05-08 00:59 | 34.23203 | -89.52105 | 40078 ft | 363 kts | 270° |
| 2026-05-08 00:59 | 34.23294 | -89.57859 | 40072 ft | 363 kts | 270° |
| 2026-05-08 01:00 | 34.23358 | -89.62013 | 40073 ft | 362 kts | 271° |
| 2026-05-08 01:00 | 34.23391 | -89.67739 | 40079 ft | 361 kts | 272° |
| 2026-05-08 01:01 | 34.23501 | -89.73574 | 40066 ft | 362 kts | 270° |
| 2026-05-08 01:01 | 34.23548 | -89.79372 | 40063 ft | 364 kts | 271° |
| 2026-05-08 01:02 | 34.23652 | -89.85311 | 40051 ft | 365 kts | 273° |
| 2026-05-08 01:02 | 34.23764 | -89.91187 | 40042 ft | 367 kts | 272° |
| 2026-05-08 01:03 | 34.23804 | -89.95999 | 40057 ft | 368 kts | 273° |
| 2026-05-08 01:03 | 34.23917 | -90.01750 | 40054 ft | 369 kts | 271° |
| 2026-05-08 01:04 | 34.23950 | -90.07093 | 40037 ft | 367 kts | 270° |
| 2026-05-08 01:04 | 34.23973 | -90.13012 | 40053 ft | 366 kts | 273° |
| 2026-05-08 01:05 | 34.24106 | -90.18710 | 40049 ft | 366 kts | 273° |
| 2026-05-08 01:05 | 34.24279 | -90.24844 | 40060 ft | 364 kts | 269° |
| 2026-05-08 01:06 | 34.24255 | -90.30399 | 40066 ft | 362 kts | 268° |
| 2026-05-08 01:06 | 34.24248 | -90.36223 | 40068 ft | 361 kts | 269° |
| 2026-05-08 01:07 | 34.24296 | -90.41594 | 40071 ft | 362 kts | 269° |
| 2026-05-08 01:07 | 34.24368 | -90.47516 | 40070 ft | 360 kts | 268° |
| 2026-05-08 01:08 | 34.24507 | -90.53472 | 40077 ft | 361 kts | 273° |
| 2026-05-08 01:08 | 34.24526 | -90.59211 | 40068 ft | 363 kts | 267° |
| 2026-05-08 01:09 | 34.24441 | -90.63590 | 40101 ft | 365 kts | 270° |
| 2026-05-08 01:09 | 34.24504 | -90.67699 | 40070 ft | 368 kts | 269° |
| 2026-05-08 01:10 | 34.24561 | -90.73633 | 40083 ft | 364 kts | 270° |
| 2026-05-08 01:10 | 34.24576 | -90.79588 | 40078 ft | 363 kts | 271° |
| 2026-05-08 01:11 | 34.24450 | -90.85420 | 40016 ft | 364 kts | 269° |
| 2026-05-08 01:11 | 34.24464 | -90.88141 | 40132 ft | 363 kts | 271° |
| 2026-05-08 01:11 | 34.24514 | -90.91112 | 40013 ft | 365 kts | 269° |
| 2026-05-08 01:11 | 34.24605 | -90.93967 | 40138 ft | 363 kts | 268° |
| 2026-05-08 01:12 | 34.24678 | -90.96862 | 40042 ft | 366 kts | 268° |
| 2026-05-08 01:12 | 34.24762 | -91.03050 | 40065 ft | 367 kts | 267° |
| 2026-05-08 01:13 | 34.24634 | -91.08854 | 40020 ft | 366 kts | 266° |
| 2026-05-08 01:13 | 34.24610 | -91.14403 | 40099 ft | 364 kts | 273° |
| 2026-05-08 01:14 | 34.24681 | -91.19782 | 40092 ft | 367 kts | 268° |
| 2026-05-08 01:14 | 34.24830 | -91.25857 | 40081 ft | 368 kts | 265° |
| 2026-05-08 01:15 | 34.24870 | -91.31870 | 40091 ft | 367 kts | 267° |
| 2026-05-08 01:15 | 34.24758 | -91.37976 | 40073 ft | 365 kts | 268° |
| 2026-05-08 01:16 | 34.24740 | -91.44100 | 40076 ft | 363 kts | 268° |
| 2026-05-08 01:16 | 34.24750 | -91.50164 | 40069 ft | 363 kts | 268° |
| 2026-05-08 01:17 | 34.24755 | -91.56280 | 40064 ft | 364 kts | 268° |
| 2026-05-08 01:17 | 34.24751 | -91.62396 | 40067 ft | 364 kts | 268° |
| 2026-05-08 01:18 | 34.24742 | -91.68519 | 40066 ft | 364 kts | 268° |
| 2026-05-08 01:18 | 34.24730 | -91.74640 | 40065 ft | 364 kts | 268° |
| 2026-05-08 01:19 | 34.24715 | -91.80769 | 40062 ft | 365 kts | 268° |
| 2026-05-08 01:19 | 34.24697 | -91.86867 | 40063 ft | 365 kts | 268° |
| 2026-05-08 01:20 | 34.24872 | -91.93002 | 40060 ft | 367 kts | 274° |
| 2026-05-08 01:20 | 34.25776 | -91.99099 | 40062 ft | 370 kts | 276° |
| 2026-05-08 01:21 | 34.26826 | -92.05191 | 40063 ft | 370 kts | 277° |
| 2026-05-08 01:21 | 34.27894 | -92.11284 | 40063 ft | 371 kts | 277° |
| 2026-05-08 01:22 | 34.28950 | -92.17386 | 40064 ft | 371 kts | 277° |
| 2026-05-08 01:22 | 34.29995 | -92.23491 | 40060 ft | 370 kts | 277° |
| 2026-05-08 01:23 | 34.31033 | -92.29587 | 40060 ft | 370 kts | 276° |
| 2026-05-08 01:23 | 34.32070 | -92.35693 | 40057 ft | 370 kts | 276° |
| 2026-05-08 01:24 | 34.33102 | -92.41786 | 40058 ft | 370 kts | 276° |
| 2026-05-08 01:24 | 34.34132 | -92.47887 | 40054 ft | 370 kts | 276° |
| 2026-05-08 01:25 | 34.35152 | -92.53949 | 40055 ft | 370 kts | 276° |
| 2026-05-08 01:25 | 34.36174 | -92.60044 | 40053 ft | 370 kts | 276° |
| 2026-05-08 01:26 | 34.37196 | -92.66152 | 40054 ft | 370 kts | 276° |
| 2026-05-08 01:26 | 34.38211 | -92.72242 | 40057 ft | 369 kts | 276° |
| 2026-05-08 01:27 | 34.39226 | -92.78351 | 40056 ft | 369 kts | 276° |
| 2026-05-08 01:27 | 34.40236 | -92.84444 | 40055 ft | 369 kts | 276° |
| 2026-05-08 01:28 | 34.41245 | -92.90559 | 40052 ft | 369 kts | 276° |
| 2026-05-08 01:28 | 34.42242 | -92.96619 | 40055 ft | 369 kts | 276° |
| 2026-05-08 01:29 | 34.43242 | -93.02716 | 40058 ft | 369 kts | 276° |
| 2026-05-08 01:29 | 34.44239 | -93.08811 | 40047 ft | 369 kts | 276° |
| 2026-05-08 01:30 | 34.45234 | -93.14917 | 40052 ft | 369 kts | 276° |
| 2026-05-08 01:30 | 34.46225 | -93.21023 | 40062 ft | 369 kts | 276° |
| 2026-05-08 01:31 | 34.47216 | -93.27143 | 40055 ft | 370 kts | 276° |
| 2026-05-08 01:31 | 34.48205 | -93.33270 | 40054 ft | 370 kts | 275° |
| 2026-05-08 01:32 | 34.49189 | -93.39394 | 40046 ft | 370 kts | 275° |
| 2026-05-08 01:32 | 34.50165 | -93.45484 | 40046 ft | 370 kts | 275° |
| 2026-05-08 01:33 | 34.51144 | -93.51614 | 40037 ft | 371 kts | 275° |
| 2026-05-08 01:33 | 34.52122 | -93.57755 | 40034 ft | 371 kts | 275° |
| 2026-05-08 01:34 | 34.53097 | -93.63894 | 40026 ft | 371 kts | 275° |
| 2026-05-08 01:34 | 34.54070 | -93.70046 | 40040 ft | 371 kts | 275° |
| 2026-05-08 01:35 | 34.55038 | -93.76196 | 40027 ft | 371 kts | 275° |
| 2026-05-08 01:35 | 34.56004 | -93.82352 | 40022 ft | 371 kts | 275° |
| 2026-05-08 01:36 | 34.56968 | -93.88509 | 40031 ft | 371 kts | 275° |
| 2026-05-08 01:36 | 34.57930 | -93.94668 | 40039 ft | 372 kts | 275° |
| 2026-05-08 01:37 | 34.58888 | -94.00833 | 40035 ft | 371 kts | 275° |
| 2026-05-08 01:37 | 34.59837 | -94.06957 | 40035 ft | 371 kts | 275° |
| 2026-05-08 01:38 | 34.60786 | -94.13103 | 40035 ft | 371 kts | 275° |
| 2026-05-08 01:38 | 34.61738 | -94.19292 | 40038 ft | 371 kts | 275° |
| 2026-05-08 01:39 | 34.62683 | -94.25457 | 40040 ft | 372 kts | 275° |
| 2026-05-08 01:39 | 34.63628 | -94.31636 | 40037 ft | 372 kts | 275° |
| 2026-05-08 01:40 | 34.64567 | -94.37814 | 40041 ft | 372 kts | 275° |
| 2026-05-08 01:40 | 34.65496 | -94.43941 | 40038 ft | 372 kts | 275° |
| 2026-05-08 01:41 | 34.66430 | -94.50124 | 40035 ft | 372 kts | 275° |
| 2026-05-08 01:41 | 34.67361 | -94.56305 | 40029 ft | 372 kts | 275° |
| 2026-05-08 01:42 | 34.68628 | -94.62443 | 40031 ft | 379 kts | 282° |
| 2026-05-08 01:42 | 34.70542 | -94.68431 | 40033 ft | 381 kts | 284° |
| 2026-05-08 01:43 | 34.72563 | -94.74408 | 40028 ft | 382 kts | 284° |
| 2026-05-08 01:43 | 34.74588 | -94.80381 | 40031 ft | 382 kts | 284° |
| 2026-05-08 01:44 | 34.76601 | -94.86360 | 40039 ft | 382 kts | 284° |
| 2026-05-08 01:44 | 34.78587 | -94.92303 | 40033 ft | 382 kts | 283° |
| 2026-05-08 01:45 | 34.80579 | -94.98290 | 40029 ft | 382 kts | 283° |
| 2026-05-08 01:45 | 34.82572 | -95.04287 | 40028 ft | 382 kts | 283° |
| 2026-05-08 01:46 | 34.84547 | -95.10237 | 40027 ft | 382 kts | 283° |
| 2026-05-08 01:46 | 34.86535 | -95.16243 | 40030 ft | 382 kts | 283° |
| 2026-05-08 01:47 | 34.88509 | -95.22215 | 40034 ft | 382 kts | 283° |
| 2026-05-08 01:47 | 34.90490 | -95.28214 | 40033 ft | 382 kts | 283° |
| 2026-05-08 01:48 | 34.93459 | -95.37235 | 40029 ft | 382 kts | 283° |
| 2026-05-08 01:48 | 34.95436 | -95.43254 | 40031 ft | 382 kts | 283° |
| 2026-05-08 01:49 | 34.97408 | -95.49273 | 40033 ft | 382 kts | 283° |
| 2026-05-08 01:49 | 34.99377 | -95.55292 | 40035 ft | 382 kts | 283° |
| 2026-05-08 01:50 | 35.01335 | -95.61289 | 40032 ft | 382 kts | 283° |
| 2026-05-08 01:50 | 35.03297 | -95.67313 | 40034 ft | 383 kts | 283° |
| 2026-05-08 01:51 | 35.05260 | -95.73351 | 40034 ft | 383 kts | 283° |
| 2026-05-08 01:51 | 35.07221 | -95.79395 | 40034 ft | 383 kts | 283° |
| 2026-05-08 01:52 | 35.09183 | -95.85454 | 40033 ft | 383 kts | 283° |
| 2026-05-08 01:52 | 35.10809 | -95.90485 | 40034 ft | 383 kts | 283° |
| 2026-05-08 01:53 | 35.12766 | -95.96550 | 40025 ft | 384 kts | 283° |
| 2026-05-08 01:53 | 35.14721 | -96.02623 | 40028 ft | 384 kts | 283° |
| 2026-05-08 01:54 | 35.16674 | -96.08705 | 40028 ft | 384 kts | 283° |
| 2026-05-08 01:54 | 35.18628 | -96.14796 | 40023 ft | 385 kts | 283° |
| 2026-05-08 01:55 | 35.20451 | -96.20879 | 40023 ft | 380 kts | 278° |
| 2026-05-08 01:55 | 35.21454 | -96.27159 | 40023 ft | 375 kts | 272° |
| 2026-05-08 01:56 | 35.22188 | -96.33474 | 40018 ft | 375 kts | 272° |
| 2026-05-08 01:56 | 35.22882 | -96.39799 | 40019 ft | 375 kts | 272° |
| 2026-05-08 01:57 | 35.23580 | -96.46136 | 40019 ft | 376 kts | 272° |
| 2026-05-08 01:57 | 35.24286 | -96.52474 | 40020 ft | 376 kts | 272° |
| 2026-05-08 01:58 | 35.24991 | -96.58819 | 40017 ft | 377 kts | 272° |
| 2026-05-08 01:58 | 35.25694 | -96.65172 | 40014 ft | 377 kts | 272° |
| 2026-05-08 01:59 | 35.26340 | -96.71039 | 40013 ft | 377 kts | 272° |
| 2026-05-08 01:59 | 35.27037 | -96.77400 | 40016 ft | 377 kts | 272° |
| 2026-05-08 02:00 | 35.27731 | -96.83770 | 40017 ft | 378 kts | 271° |
| 2026-05-08 02:00 | 35.28422 | -96.90149 | 40020 ft | 378 kts | 271° |
| 2026-05-08 02:01 | 35.29111 | -96.96533 | 40018 ft | 379 kts | 271° |
| 2026-05-08 02:01 | 35.29798 | -97.02930 | 40017 ft | 379 kts | 271° |
| 2026-05-08 02:02 | 35.30481 | -97.09327 | 40019 ft | 379 kts | 271° |
| 2026-05-08 02:02 | 35.31162 | -97.15735 | 40018 ft | 380 kts | 271° |
| 2026-05-08 02:03 | 35.31839 | -97.22143 | 40006 ft | 380 kts | 271° |
| 2026-05-08 02:03 | 35.32515 | -97.28561 | 40004 ft | 380 kts | 271° |
| 2026-05-08 02:04 | 35.33187 | -97.34989 | 40009 ft | 380 kts | 271° |
| 2026-05-08 02:04 | 35.33852 | -97.41378 | 40017 ft | 381 kts | 271° |
| 2026-05-08 02:05 | 35.34519 | -97.47824 | 39999 ft | 382 kts | 271° |
| 2026-05-08 02:05 | 35.35183 | -97.54272 | 40017 ft | 382 kts | 271° |
| 2026-05-08 02:06 | 35.35845 | -97.60737 | 40020 ft | 382 kts | 271° |
| 2026-05-08 02:06 | 35.36619 | -97.67199 | 40017 ft | 385 kts | 273° |
| 2026-05-08 02:07 | 35.37535 | -97.73666 | 40013 ft | 385 kts | 274° |
| 2026-05-08 02:07 | 35.38435 | -97.80108 | 40006 ft | 385 kts | 273° |
| 2026-05-08 02:08 | 35.39313 | -97.86623 | 40008 ft | 386 kts | 273° |
| 2026-05-08 02:08 | 35.40173 | -97.93116 | 40010 ft | 386 kts | 273° |
| 2026-05-08 02:09 | 35.41030 | -97.99617 | 40010 ft | 387 kts | 273° |
| 2026-05-08 02:09 | 35.41887 | -98.06132 | 40007 ft | 387 kts | 273° |
| 2026-05-08 02:10 | 35.42734 | -98.12609 | 40007 ft | 387 kts | 273° |
| 2026-05-08 02:10 | 35.43585 | -98.19140 | 40002 ft | 388 kts | 273° |
| 2026-05-08 02:11 | 35.44435 | -98.25679 | 39999 ft | 389 kts | 273° |
| 2026-05-08 02:11 | 35.45282 | -98.32230 | 39990 ft | 389 kts | 273° |
| 2026-05-08 02:12 | 35.46127 | -98.38800 | 39992 ft | 390 kts | 273° |
| 2026-05-08 02:12 | 35.46969 | -98.45373 | 39997 ft | 390 kts | 273° |
| 2026-05-08 02:13 | 35.47809 | -98.51963 | 40003 ft | 391 kts | 272° |
| 2026-05-08 02:13 | 35.48647 | -98.58560 | 40010 ft | 392 kts | 272° |
| 2026-05-08 02:14 | 35.49483 | -98.65178 | 40009 ft | 393 kts | 272° |
| 2026-05-08 02:14 | 35.50312 | -98.71766 | 40010 ft | 394 kts | 272° |
| 2026-05-08 02:15 | 35.51145 | -98.78415 | 40006 ft | 395 kts | 272° |
| 2026-05-08 02:15 | 35.51976 | -98.85079 | 39999 ft | 395 kts | 272° |
| 2026-05-08 02:16 | 35.52805 | -98.91757 | 39991 ft | 396 kts | 272° |
| 2026-05-08 02:16 | 35.53632 | -98.98449 | 39979 ft | 397 kts | 272° |
| 2026-05-08 02:17 | 35.54456 | -99.05154 | 39985 ft | 397 kts | 272° |
| 2026-05-08 02:17 | 35.55279 | -99.11876 | 39989 ft | 398 kts | 272° |
| 2026-05-08 02:18 | 35.56098 | -99.18606 | 39974 ft | 399 kts | 272° |
| 2026-05-08 02:18 | 35.56916 | -99.25351 | 39973 ft | 399 kts | 272° |
| 2026-05-08 02:19 | 35.57724 | -99.32055 | 39979 ft | 400 kts | 272° |
| 2026-05-08 02:19 | 35.58538 | -99.38827 | 39986 ft | 400 kts | 272° |
| 2026-05-08 02:20 | 35.59347 | -99.45601 | 39985 ft | 401 kts | 272° |
| 2026-05-08 02:20 | 35.60154 | -99.52389 | 39986 ft | 401 kts | 272° |
| 2026-05-08 02:21 | 35.60959 | -99.59190 | 39977 ft | 402 kts | 272° |
| 2026-05-08 02:21 | 35.61754 | -99.65948 | 39982 ft | 403 kts | 272° |
| 2026-05-08 02:22 | 35.62552 | -99.72759 | 39967 ft | 403 kts | 272° |
| 2026-05-08 02:22 | 35.63346 | -99.79582 | 39972 ft | 404 kts | 272° |
| 2026-05-08 02:23 | 35.64142 | -99.86436 | 39966 ft | 404 kts | 272° |
| 2026-05-08 02:23 | 35.64932 | -99.93278 | 39961 ft | 405 kts | 272° |
| 2026-05-08 02:24 | 35.65719 | -100.00131 | 39964 ft | 405 kts | 272° |
| 2026-05-08 02:24 | 35.66502 | -100.06995 | 39969 ft | 406 kts | 272° |
| 2026-05-08 02:25 | 35.67278 | -100.13830 | 39966 ft | 406 kts | 272° |
| 2026-05-08 02:25 | 35.68057 | -100.20724 | 39969 ft | 407 kts | 272° |
| 2026-05-08 02:26 | 35.68832 | -100.27625 | 39971 ft | 408 kts | 272° |
| 2026-05-08 02:26 | 35.69606 | -100.34540 | 39967 ft | 408 kts | 272° |
| 2026-05-08 02:27 | 35.70377 | -100.41474 | 39972 ft | 409 kts | 272° |
| 2026-05-08 02:27 | 35.71145 | -100.48418 | 39969 ft | 410 kts | 273° |
| 2026-05-08 02:28 | 35.71906 | -100.55328 | 39970 ft | 411 kts | 273° |
| 2026-05-08 02:28 | 35.72668 | -100.62299 | 39969 ft | 411 kts | 273° |
| 2026-05-08 02:29 | 35.73429 | -100.69286 | 39974 ft | 413 kts | 273° |
| 2026-05-08 02:29 | 35.74188 | -100.76297 | 39987 ft | 414 kts | 273° |
| 2026-05-08 02:30 | 35.74945 | -100.83333 | 39997 ft | 415 kts | 273° |
| 2026-05-08 02:30 | 35.75701 | -100.90390 | 40001 ft | 416 kts | 273° |
| 2026-05-08 02:31 | 35.76454 | -100.97470 | 40010 ft | 417 kts | 273° |
| 2026-05-08 02:31 | 35.77205 | -101.04563 | 40003 ft | 418 kts | 273° |
| 2026-05-08 02:32 | 35.77948 | -101.11619 | 39997 ft | 419 kts | 273° |
| 2026-05-08 02:32 | 35.78697 | -101.18779 | 39979 ft | 419 kts | 273° |
| 2026-05-08 02:33 | 35.79435 | -101.25878 | 39989 ft | 420 kts | 273° |
| 2026-05-08 02:33 | 35.80176 | -101.33039 | 39995 ft | 421 kts | 273° |
| 2026-05-08 02:34 | 35.80615 | -101.40216 | 39999 ft | 419 kts | 266° |
| 2026-05-08 02:34 | 35.80507 | -101.47387 | 39992 ft | 419 kts | 265° |
| 2026-05-08 02:35 | 35.80316 | -101.54569 | 39982 ft | 420 kts | 265° |
| 2026-05-08 02:35 | 35.80116 | -101.61721 | 39974 ft | 421 kts | 265° |
| 2026-05-08 02:36 | 35.79921 | -101.68897 | 39960 ft | 421 kts | 265° |
| 2026-05-08 02:36 | 35.79724 | -101.76152 | 39983 ft | 422 kts | 265° |
| 2026-05-08 02:37 | 35.79524 | -101.83387 | 39997 ft | 423 kts | 265° |
| 2026-05-08 02:37 | 35.79319 | -101.90638 | 40013 ft | 424 kts | 265° |
| 2026-05-08 02:38 | 35.79110 | -101.97910 | 40019 ft | 425 kts | 265° |
| 2026-05-08 02:38 | 35.78895 | -102.05195 | 40016 ft | 426 kts | 265° |
| 2026-05-08 02:39 | 35.78677 | -102.12441 | 40010 ft | 426 kts | 265° |
| 2026-05-08 02:39 | 35.78452 | -102.19753 | 39997 ft | 427 kts | 265° |
| 2026-05-08 02:40 | 35.78223 | -102.27072 | 39982 ft | 428 kts | 265° |
| 2026-05-08 02:40 | 35.77989 | -102.34428 | 39971 ft | 429 kts | 265° |
| 2026-05-08 02:41 | 35.77751 | -102.41727 | 39974 ft | 430 kts | 265° |
| 2026-05-08 02:41 | 35.77506 | -102.49140 | 39980 ft | 431 kts | 265° |
| 2026-05-08 02:42 | 35.77258 | -102.56473 | 39979 ft | 431 kts | 265° |
| 2026-05-08 02:42 | 35.77005 | -102.63859 | 39976 ft | 432 kts | 265° |
| 2026-05-08 02:43 | 35.76746 | -102.71262 | 39968 ft | 433 kts | 265° |
| 2026-05-08 02:43 | 35.76526 | -102.77440 | 39957 ft | 433 kts | 265° |
| 2026-05-08 02:44 | 35.76258 | -102.84865 | 39942 ft | 434 kts | 265° |
| 2026-05-08 02:44 | 35.75985 | -102.92304 | 39943 ft | 435 kts | 265° |
| 2026-05-08 02:45 | 35.75707 | -102.99759 | 39944 ft | 436 kts | 265° |
| 2026-05-08 02:45 | 35.75423 | -103.07225 | 39944 ft | 437 kts | 265° |
| 2026-05-08 02:46 | 35.75137 | -103.14648 | 39943 ft | 437 kts | 265° |
| 2026-05-08 02:46 | 35.74843 | -103.22138 | 39940 ft | 438 kts | 265° |
| 2026-05-08 02:47 | 35.74545 | -103.29635 | 39939 ft | 439 kts | 265° |
| 2026-05-08 02:47 | 35.74241 | -103.37148 | 39939 ft | 439 kts | 265° |
| 2026-05-08 02:48 | 35.73931 | -103.44675 | 39935 ft | 440 kts | 265° |
| 2026-05-08 02:48 | 35.73617 | -103.52208 | 39938 ft | 441 kts | 265° |
| 2026-05-08 02:49 | 35.73300 | -103.59710 | 39940 ft | 442 kts | 265° |
| 2026-05-08 02:49 | 35.72975 | -103.67266 | 39938 ft | 442 kts | 265° |
| 2026-05-08 02:50 | 35.72646 | -103.74842 | 39935 ft | 443 kts | 265° |
| 2026-05-08 02:50 | 35.72311 | -103.82420 | 39942 ft | 444 kts | 265° |
| 2026-05-08 02:51 | 35.71971 | -103.90001 | 39933 ft | 444 kts | 265° |
| 2026-05-08 02:51 | 35.71626 | -103.97598 | 39933 ft | 445 kts | 265° |
| 2026-05-08 02:52 | 35.71275 | -104.05207 | 39937 ft | 446 kts | 265° |
| 2026-05-08 02:52 | 35.70920 | -104.12778 | 39930 ft | 446 kts | 265° |
| 2026-05-08 02:53 | 35.70559 | -104.20416 | 39927 ft | 447 kts | 265° |
| 2026-05-08 02:53 | 35.70191 | -104.28069 | 39929 ft | 448 kts | 265° |
| 2026-05-08 02:54 | 35.69818 | -104.35727 | 39925 ft | 449 kts | 265° |
| 2026-05-08 02:54 | 35.69440 | -104.43398 | 39926 ft | 449 kts | 265° |
| 2026-05-08 02:55 | 35.68866 | -104.54881 | 39924 ft | 450 kts | 265° |
| 2026-05-08 02:56 | 35.68474 | -104.62586 | 39928 ft | 451 kts | 265° |
| 2026-05-08 02:56 | 35.68076 | -104.70306 | 39932 ft | 452 kts | 265° |
| 2026-05-08 02:57 | 35.67673 | -104.78028 | 39965 ft | 453 kts | 265° |
| 2026-05-08 02:57 | 35.67264 | -104.85772 | 39996 ft | 454 kts | 265° |
| 2026-05-08 02:58 | 35.66853 | -104.93480 | 40036 ft | 454 kts | 265° |
| 2026-05-08 02:58 | 35.66433 | -105.01243 | 40071 ft | 455 kts | 265° |
| 2026-05-08 02:59 | 35.66007 | -105.09019 | 40082 ft | 456 kts | 265° |
| 2026-05-08 02:59 | 35.65537 | -105.16797 | 40083 ft | 456 kts | 263° |
| 2026-05-08 03:00 | 35.64600 | -105.24514 | 40108 ft | 456 kts | 260° |
| 2026-05-08 03:00 | 35.63525 | -105.32213 | 40074 ft | 457 kts | 260° |
| 2026-05-08 03:01 | 35.62510 | -105.39931 | 40036 ft | 458 kts | 261° |
| 2026-05-08 03:01 | 35.61537 | -105.47673 | 39997 ft | 458 kts | 261° |
| 2026-05-08 03:02 | 35.60572 | -105.55422 | 39970 ft | 459 kts | 261° |
| 2026-05-08 03:02 | 35.59606 | -105.63130 | 39956 ft | 460 kts | 261° |
| 2026-05-08 03:03 | 35.58623 | -105.70910 | 39983 ft | 460 kts | 261° |
| 2026-05-08 03:03 | 35.57635 | -105.78682 | 40015 ft | 461 kts | 261° |
| 2026-05-08 03:04 | 35.56639 | -105.86469 | 40042 ft | 462 kts | 261° |
| 2026-05-08 03:04 | 35.55637 | -105.94262 | 40068 ft | 463 kts | 261° |
| 2026-05-08 03:05 | 35.54627 | -106.02078 | 40089 ft | 464 kts | 261° |
| 2026-05-08 03:05 | 35.54033 | -106.09961 | 40090 ft | 465 kts | 268° |
| 2026-05-08 03:06 | 35.53888 | -106.17906 | 40081 ft | 466 kts | 269° |
| 2026-05-08 03:06 | 35.53802 | -106.25867 | 40052 ft | 467 kts | 269° |
| 2026-05-08 03:07 | 35.53710 | -106.33848 | 40018 ft | 468 kts | 269° |
| 2026-05-08 03:07 | 35.53603 | -106.41836 | 39980 ft | 468 kts | 269° |
| 2026-05-08 03:08 | 35.53486 | -106.49794 | 39949 ft | 469 kts | 269° |
| 2026-05-08 03:08 | 35.53363 | -106.57805 | 39941 ft | 469 kts | 269° |
| 2026-05-08 03:09 | 35.53235 | -106.65823 | 39950 ft | 470 kts | 269° |
| 2026-05-08 03:09 | 35.53101 | -106.73850 | 39950 ft | 471 kts | 269° |
| 2026-05-08 03:10 | 35.52962 | -106.81903 | 39953 ft | 471 kts | 269° |
| 2026-05-08 03:10 | 35.52817 | -106.89941 | 39957 ft | 471 kts | 269° |
| 2026-05-08 03:11 | 35.52668 | -106.97947 | 39962 ft | 472 kts | 269° |
| 2026-05-08 03:11 | 35.52513 | -107.06005 | 39972 ft | 472 kts | 269° |
| 2026-05-08 03:12 | 35.52351 | -107.14073 | 39978 ft | 472 kts | 269° |
| 2026-05-08 03:12 | 35.52185 | -107.22145 | 39980 ft | 473 kts | 270° |
| 2026-05-08 03:13 | 35.52013 | -107.30212 | 39983 ft | 474 kts | 270° |
| 2026-05-08 03:13 | 35.51836 | -107.38317 | 39984 ft | 475 kts | 270° |
| 2026-05-08 03:14 | 35.51654 | -107.46426 | 39985 ft | 476 kts | 270° |
| 2026-05-08 03:14 | 35.51464 | -107.54560 | 39988 ft | 477 kts | 270° |
| 2026-05-08 03:15 | 35.51270 | -107.62640 | 39987 ft | 477 kts | 270° |
| 2026-05-08 03:15 | 35.51069 | -107.70801 | 39984 ft | 478 kts | 270° |
| 2026-05-08 03:16 | 35.50862 | -107.78958 | 39986 ft | 478 kts | 270° |
| 2026-05-08 03:16 | 35.50650 | -107.87116 | 39992 ft | 478 kts | 270° |
| 2026-05-08 03:17 | 35.50433 | -107.95278 | 39987 ft | 479 kts | 270° |
| 2026-05-08 03:17 | 35.50210 | -108.03459 | 39979 ft | 479 kts | 269° |
| 2026-05-08 03:18 | 35.49981 | -108.11626 | 39970 ft | 479 kts | 270° |
| 2026-05-08 03:18 | 35.49747 | -108.19796 | 39968 ft | 479 kts | 270° |
| 2026-05-08 03:19 | 35.49507 | -108.27980 | 39962 ft | 480 kts | 270° |
| 2026-05-08 03:19 | 35.49261 | -108.36174 | 39967 ft | 480 kts | 270° |
| 2026-05-08 03:20 | 35.49009 | -108.44366 | 40014 ft | 481 kts | 270° |
| 2026-05-08 03:20 | 35.48753 | -108.52519 | 40066 ft | 481 kts | 270° |
| 2026-05-08 03:21 | 35.48491 | -108.60715 | 40114 ft | 481 kts | 270° |
| 2026-05-08 03:21 | 35.48221 | -108.68939 | 40164 ft | 482 kts | 270° |
| 2026-05-08 03:22 | 35.47947 | -108.77152 | 40164 ft | 482 kts | 270° |
| 2026-05-08 03:22 | 35.47666 | -108.85385 | 40163 ft | 483 kts | 270° |
| 2026-05-08 03:23 | 35.47181 | -108.93622 | 40139 ft | 485 kts | 265° |
| 2026-05-08 03:23 | 35.46212 | -109.01809 | 40092 ft | 485 kts | 263° |
| 2026-05-08 03:24 | 35.45214 | -109.10002 | 40089 ft | 486 kts | 264° |
| 2026-05-08 03:24 | 35.44290 | -109.18207 | 40072 ft | 486 kts | 264° |
| 2026-05-08 03:25 | 35.43398 | -109.26428 | 40043 ft | 486 kts | 264° |
| 2026-05-08 03:25 | 35.42507 | -109.34652 | 40006 ft | 487 kts | 264° |
| 2026-05-08 03:26 | 35.41608 | -109.42879 | 39979 ft | 487 kts | 264° |
| 2026-05-08 03:26 | 35.40705 | -109.51054 | 39981 ft | 487 kts | 264° |
| 2026-05-08 03:27 | 35.39789 | -109.59291 | 39978 ft | 488 kts | 264° |
| 2026-05-08 03:27 | 35.38868 | -109.67519 | 39978 ft | 488 kts | 264° |
| 2026-05-08 03:28 | 35.37940 | -109.75757 | 39969 ft | 488 kts | 264° |
| 2026-05-08 03:28 | 35.37006 | -109.84004 | 39969 ft | 488 kts | 264° |
| 2026-05-08 03:29 | 35.36068 | -109.92239 | 39964 ft | 489 kts | 264° |
| 2026-05-08 03:29 | 35.35281 | -109.99097 | 39965 ft | 489 kts | 264° |
| 2026-05-08 03:30 | 35.33852 | -110.11476 | 39967 ft | 489 kts | 264° |
| 2026-05-08 03:31 | 35.31924 | -110.27995 | 39960 ft | 490 kts | 264° |
| 2026-05-08 03:32 | 35.30463 | -110.40390 | 39972 ft | 490 kts | 264° |
| 2026-05-08 03:32 | 35.29479 | -110.48663 | 39974 ft | 491 kts | 264° |
| 2026-05-08 03:33 | 35.28490 | -110.56935 | 40000 ft | 491 kts | 264° |
| 2026-05-08 03:33 | 35.27503 | -110.65144 | 40019 ft | 491 kts | 264° |
| 2026-05-08 03:34 | 35.26504 | -110.73408 | 40023 ft | 492 kts | 264° |
| 2026-05-08 03:34 | 35.25497 | -110.81687 | 40024 ft | 492 kts | 264° |
| 2026-05-08 03:35 | 35.24484 | -110.89965 | 40016 ft | 492 kts | 264° |
| 2026-05-08 03:35 | 35.23333 | -110.99309 | 39997 ft | 492 kts | 264° |
| 2026-05-08 03:36 | 35.22310 | -111.07569 | 39983 ft | 492 kts | 264° |
| 2026-05-08 03:36 | 35.21280 | -111.15842 | 39982 ft | 492 kts | 264° |
| 2026-05-08 03:37 | 35.20244 | -111.24099 | 39992 ft | 492 kts | 264° |
| 2026-05-08 03:37 | 35.19201 | -111.32376 | 40057 ft | 492 kts | 264° |
| 2026-05-08 03:38 | 35.18155 | -111.40632 | 40117 ft | 492 kts | 263° |
| 2026-05-08 03:38 | 35.17102 | -111.48886 | 40170 ft | 492 kts | 263° |
| 2026-05-08 03:39 | 35.16223 | -111.55752 | 40217 ft | 492 kts | 263° |
| 2026-05-08 03:39 | 35.14960 | -111.65359 | 40215 ft | 493 kts | 261° |
| 2026-05-08 03:40 | 35.13385 | -111.72066 | 40223 ft | 495 kts | 254° |
| 2026-05-08 03:40 | 35.11137 | -111.80018 | 40201 ft | 496 kts | 253° |
| 2026-05-08 03:41 | 35.08815 | -111.87949 | 40140 ft | 496 kts | 252° |
| 2026-05-08 03:41 | 35.06493 | -111.95887 | 40065 ft | 496 kts | 252° |
| 2026-05-08 03:42 | 35.04181 | -112.03821 | 39986 ft | 496 kts | 253° |
| 2026-05-08 03:42 | 35.01866 | -112.11761 | 40008 ft | 496 kts | 253° |
| 2026-05-08 03:43 | 34.99544 | -112.19701 | 39983 ft | 497 kts | 252° |
| 2026-05-08 03:43 | 34.97211 | -112.27655 | 39940 ft | 497 kts | 252° |
| 2026-05-08 03:44 | 34.94883 | -112.35573 | 39954 ft | 496 kts | 252° |
| 2026-05-08 03:44 | 34.92564 | -112.43437 | 39971 ft | 496 kts | 252° |
| 2026-05-08 03:45 | 34.90229 | -112.51337 | 39970 ft | 495 kts | 252° |
| 2026-05-08 03:45 | 34.87875 | -112.59273 | 39967 ft | 495 kts | 252° |
| 2026-05-08 03:46 | 34.85547 | -112.67102 | 39951 ft | 494 kts | 252° |
| 2026-05-08 03:46 | 34.83202 | -112.74968 | 39923 ft | 494 kts | 252° |
| 2026-05-08 03:47 | 34.80858 | -112.82808 | 39894 ft | 493 kts | 252° |
| 2026-05-08 03:47 | 34.78503 | -112.90662 | 39891 ft | 493 kts | 252° |
| 2026-05-08 03:48 | 34.76149 | -112.98493 | 39883 ft | 493 kts | 252° |
| 2026-05-08 03:48 | 34.73788 | -113.06328 | 39880 ft | 493 kts | 252° |
| 2026-05-08 03:49 | 34.71422 | -113.14154 | 39873 ft | 494 kts | 252° |
| 2026-05-08 03:49 | 34.69059 | -113.21953 | 39871 ft | 494 kts | 252° |
| 2026-05-08 03:50 | 34.66665 | -113.29834 | 39855 ft | 494 kts | 252° |
| 2026-05-08 03:50 | 34.64295 | -113.37609 | 39840 ft | 494 kts | 252° |
| 2026-05-08 03:51 | 34.61904 | -113.45437 | 39838 ft | 495 kts | 252° |
| 2026-05-08 03:51 | 34.59504 | -113.53271 | 39835 ft | 495 kts | 252° |
| 2026-05-08 03:52 | 34.57114 | -113.61103 | 39824 ft | 495 kts | 253° |
| 2026-05-08 03:52 | 34.55672 | -113.69209 | 39824 ft | 490 kts | 264° |
| 2026-05-08 03:53 | 34.54744 | -113.77395 | 39823 ft | 489 kts | 265° |
| 2026-05-08 03:53 | 34.53832 | -113.85561 | 39819 ft | 489 kts | 265° |
| 2026-05-08 03:54 | 34.52919 | -113.93692 | 39816 ft | 488 kts | 265° |
| 2026-05-08 03:54 | 34.51993 | -114.01895 | 39825 ft | 488 kts | 265° |
| 2026-05-08 03:55 | 34.50671 | -114.09948 | 39832 ft | 490 kts | 258° |
| 2026-05-08 03:55 | 34.48969 | -114.17971 | 39841 ft | 491 kts | 258° |
| 2026-05-08 03:56 | 34.47264 | -114.25988 | 39850 ft | 491 kts | 258° |
| 2026-05-08 03:56 | 34.45560 | -114.33993 | 39854 ft | 491 kts | 258° |
| 2026-05-08 03:57 | 34.43850 | -114.42004 | 39846 ft | 491 kts | 258° |
| 2026-05-08 03:57 | 34.42133 | -114.50021 | 39838 ft | 491 kts | 258° |
| 2026-05-08 03:58 | 34.40412 | -114.58033 | 39823 ft | 491 kts | 258° |
| 2026-05-08 03:58 | 34.38687 | -114.66035 | 39811 ft | 491 kts | 258° |
| 2026-05-08 03:59 | 34.36956 | -114.74037 | 39809 ft | 491 kts | 258° |
| 2026-05-08 03:59 | 34.35234 | -114.81969 | 39814 ft | 490 kts | 258° |
| 2026-05-08 04:00 | 34.33497 | -114.89942 | 39818 ft | 488 kts | 258° |
| 2026-05-08 04:00 | 34.31768 | -114.97865 | 39821 ft | 487 kts | 258° |
| 2026-05-08 04:01 | 34.30027 | -115.05784 | 39828 ft | 486 kts | 258° |
| 2026-05-08 04:01 | 34.28289 | -115.13671 | 39832 ft | 485 kts | 257° |
| 2026-05-08 04:02 | 34.26549 | -115.21542 | 39832 ft | 484 kts | 257° |
| 2026-05-08 04:02 | 34.24860 | -115.29424 | 39835 ft | 484 kts | 258° |
| 2026-05-08 04:03 | 34.23188 | -115.37296 | 39838 ft | 483 kts | 258° |
| 2026-05-08 04:03 | 34.20677 | -115.49029 | 39842 ft | 483 kts | 258° |
| 2026-05-08 04:04 | 34.18991 | -115.56869 | 39852 ft | 482 kts | 258° |
| 2026-05-08 04:04 | 34.17300 | -115.64703 | 39859 ft | 482 kts | 258° |
| 2026-05-08 04:05 | 34.16017 | -115.72611 | 39871 ft | 479 kts | 265° |
| 2026-05-08 04:05 | 34.15252 | -115.80604 | 39896 ft | 479 kts | 265° |
| 2026-05-08 04:06 | 34.14486 | -115.88594 | 39933 ft | 479 kts | 265° |
| 2026-05-08 04:06 | 34.13711 | -115.96573 | 39962 ft | 479 kts | 265° |
| 2026-05-08 04:07 | 34.12932 | -116.04571 | 39979 ft | 480 kts | 265° |
| 2026-05-08 04:07 | 34.12146 | -116.12544 | 39713 ft | 475 kts | 265° |
| 2026-05-08 04:08 | 34.11753 | -116.16521 | 38883 ft | 480 kts | 265° |
| 2026-05-08 04:08 | 34.11355 | -116.20550 | 37801 ft | 488 kts | 265° |
| 2026-05-08 04:08 | 34.10949 | -116.24646 | 36802 ft | 493 kts | 265° |
| 2026-05-08 04:08 | 34.10538 | -116.28764 | 35880 ft | 497 kts | 265° |
| 2026-05-08 04:09 | 34.10125 | -116.32872 | 34968 ft | 500 kts | 265° |
| 2026-05-08 04:09 | 34.09680 | -116.37040 | 34162 ft | 502 kts | 265° |
| 2026-05-08 04:09 | 34.09221 | -116.41267 | 33339 ft | 500 kts | 265° |
| 2026-05-08 04:09 | 34.08777 | -116.45362 | 32654 ft | 498 kts | 264° |
| 2026-05-08 04:10 | 34.08329 | -116.49500 | 31992 ft | 494 kts | 264° |
| 2026-05-08 04:10 | 34.07887 | -116.53582 | 31396 ft | 490 kts | 264° |
| 2026-05-08 04:10 | 34.07445 | -116.57652 | 30799 ft | 486 kts | 264° |
| 2026-05-08 04:10 | 34.07020 | -116.61671 | 30239 ft | 482 kts | 265° |
| 2026-05-08 04:11 | 34.06651 | -116.65680 | 29621 ft | 479 kts | 266° |
| 2026-05-08 04:11 | 34.06296 | -116.69637 | 29277 ft | 469 kts | 265° |
| 2026-05-08 04:11 | 34.05945 | -116.73488 | 28991 ft | 458 kts | 265° |
| 2026-05-08 04:11 | 34.05595 | -116.77288 | 28531 ft | 453 kts | 265° |
| 2026-05-08 04:12 | 34.05246 | -116.81034 | 28015 ft | 448 kts | 265° |
| 2026-05-08 04:12 | 34.04898 | -116.84757 | 27469 ft | 444 kts | 265° |
| 2026-05-08 04:12 | 34.04551 | -116.88451 | 26983 ft | 440 kts | 265° |
| 2026-05-08 04:12 | 34.04173 | -116.92095 | 26426 ft | 431 kts | 264° |
| 2026-05-08 04:13 | 34.04013 | -116.95700 | 25399 ft | 429 kts | 276° |
| 2026-05-08 04:13 | 34.04607 | -116.99198 | 23929 ft | 425 kts | 291° |
| 2026-05-08 04:13 | 34.05431 | -117.02629 | 22029 ft | 430 kts | 285° |
| 2026-05-08 04:13 | 34.05877 | -117.06207 | 20078 ft | 435 kts | 275° |
| 2026-05-08 04:14 | 34.05649 | -117.09857 | 18154 ft | 440 kts | 258° |
| 2026-05-08 04:14 | 34.04589 | -117.13310 | 16283 ft | 436 kts | 244° |
| 2026-05-08 04:14 | 34.03194 | -117.16523 | 14530 ft | 429 kts | 242° |
| 2026-05-08 04:14 | 34.01790 | -117.19649 | 13008 ft | 417 kts | 242° |
| 2026-05-08 04:15 | 34.00578 | -117.22718 | 12331 ft | 399 kts | 251° |
| 2026-05-08 04:15 | 33.99935 | -117.25949 | 12074 ft | 398 kts | 262° |
| 2026-05-08 04:15 | 33.99530 | -117.29251 | 11819 ft | 398 kts | 263° |
| 2026-05-08 04:15 | 33.99149 | -117.32520 | 11631 ft | 383 kts | 263° |
| 2026-05-08 04:16 | 33.98801 | -117.35529 | 11537 ft | 342 kts | 263° |
| 2026-05-08 04:16 | 33.98485 | -117.38234 | 11461 ft | 318 kts | 263° |
| 2026-05-08 04:16 | 33.98176 | -117.40888 | 11345 ft | 328 kts | 263° |
| 2026-05-08 04:16 | 33.97857 | -117.43619 | 11231 ft | 330 kts | 263° |
| 2026-05-08 04:17 | 33.97531 | -117.46395 | 11086 ft | 329 kts | 263° |
| 2026-05-08 04:17 | 33.97408 | -117.49097 | 10855 ft | 326 kts | 276° |
| 2026-05-08 04:17 | 33.97766 | -117.51292 | 10667 ft | 322 kts | 287° |
| 2026-05-08 04:17 | 33.98394 | -117.53877 | 10430 ft | 323 kts | 288° |
| 2026-05-08 04:18 | 33.99030 | -117.56479 | 10308 ft | 322 kts | 287° |
| 2026-05-08 04:18 | 33.99646 | -117.59049 | 10087 ft | 318 kts | 287° |
| 2026-05-08 04:18 | 34.00252 | -117.61597 | 10004 ft | 316 kts | 287° |
| 2026-05-08 04:18 | 34.00858 | -117.64156 | 9994 ft | 316 kts | 287° |
| 2026-05-08 04:19 | 34.01455 | -117.66684 | 9989 ft | 308 kts | 287° |
| 2026-05-08 04:19 | 34.01989 | -117.69115 | 9995 ft | 295 kts | 283° |
| 2026-05-08 04:19 | 34.02075 | -117.71572 | 9954 ft | 294 kts | 266° |
| 2026-05-08 04:19 | 34.01853 | -117.74028 | 9604 ft | 294 kts | 264° |
| 2026-05-08 04:20 | 34.01595 | -117.76461 | 9158 ft | 293 kts | 264° |
| 2026-05-08 04:20 | 34.01347 | -117.78886 | 8803 ft | 289 kts | 264° |
| 2026-05-08 04:20 | 34.01106 | -117.81276 | 8420 ft | 286 kts | 264° |
| 2026-05-08 04:20 | 34.00869 | -117.83642 | 8106 ft | 284 kts | 265° |
| 2026-05-08 04:21 | 34.00638 | -117.86010 | 7804 ft | 283 kts | 265° |
| 2026-05-08 04:21 | 34.00407 | -117.88354 | 7440 ft | 281 kts | 265° |
| 2026-05-08 04:21 | 34.00176 | -117.90682 | 7124 ft | 278 kts | 265° |
| 2026-05-08 04:21 | 33.99951 | -117.92990 | 6843 ft | 277 kts | 265° |
| 2026-05-08 04:22 | 33.99727 | -117.95283 | 6503 ft | 275 kts | 265° |
| 2026-05-08 04:22 | 33.99501 | -117.97558 | 6170 ft | 273 kts | 265° |
| 2026-05-08 04:22 | 33.99277 | -117.99826 | 5962 ft | 271 kts | 265° |
| 2026-05-08 04:22 | 33.99056 | -118.02057 | 5576 ft | 272 kts | 265° |
| 2026-05-08 04:23 | 33.98830 | -118.04314 | 5168 ft | 271 kts | 265° |
| 2026-05-08 04:23 | 33.98607 | -118.06546 | 4909 ft | 267 kts | 265° |
| 2026-05-08 04:23 | 33.98388 | -118.08775 | 4434 ft | 269 kts | 265° |
| 2026-05-08 04:23 | 33.98166 | -118.11010 | 4074 ft | 266 kts | 264° |
| 2026-05-08 04:24 | 33.98022 | -118.12454 | 3970 ft | 258 kts | 264° |
| 2026-05-08 04:24 | 33.97814 | -118.14558 | 3827 ft | 247 kts | 264° |
| 2026-05-08 04:24 | 33.97608 | -118.16565 | 3665 ft | 233 kts | 264° |
| 2026-05-08 04:24 | 33.97422 | -118.18423 | 3456 ft | 215 kts | 264° |
| 2026-05-08 04:25 | 33.97248 | -118.20137 | 3278 ft | 197 kts | 264° |
| 2026-05-08 04:25 | 33.97091 | -118.21692 | 3165 ft | 177 kts | 264° |
| 2026-05-08 04:25 | 33.96952 | -118.23114 | 2942 ft | 165 kts | 264° |
| 2026-05-08 04:25 | 33.96817 | -118.24453 | 2743 ft | 157 kts | 263° |
| 2026-05-08 04:26 | 33.96687 | -118.25721 | 2521 ft | 149 kts | 263° |
| 2026-05-08 04:26 | 33.96563 | -118.26934 | 2330 ft | 143 kts | 263° |
| 2026-05-08 04:26 | 33.96442 | -118.28121 | 2139 ft | 142 kts | 263° |
| 2026-05-08 04:26 | 33.96322 | -118.29293 | 1947 ft | 139 kts | 263° |
| 2026-05-08 04:27 | 33.96206 | -118.30432 | 1766 ft | 135 kts | 263° |
| 2026-05-08 04:27 | 33.96092 | -118.31551 | 1588 ft | 134 kts | 263° |
| 2026-05-08 04:27 | 33.95978 | -118.32669 | 1402 ft | 134 kts | 263° |
| 2026-05-08 04:27 | 33.95866 | -118.33765 | 1230 ft | 133 kts | 262° |
| 2026-05-08 04:28 | 33.95754 | -118.34865 | 1049 ft | 132 kts | 262° |
| 2026-05-08 04:28 | 33.95643 | -118.35956 | 871 ft | 130 kts | 263° |
| 2026-05-08 04:28 | 33.95533 | -118.37033 | 696 ft | 129 kts | 263° |
| 2026-05-08 04:28 | 33.95423 | -118.38105 | 521 ft | 129 kts | 263° |
| 2026-05-08 04:29 | 33.95313 | -118.39185 | 336 ft | 130 kts | 263° |
| 2026-05-08 04:29 | 33.95202 | -118.40272 | 153 ft | 131 kts | 263° |
| 2026-05-08 04:29 | 33.95102 | -118.41257 | 113 ft | 92 kts | 263° |
| 2026-05-08 04:29 | 33.95046 | -118.41779 | 111 ft | 34 kts | 263° |
| 2026-05-08 04:30 | 33.95033 | -118.41904 | 112 ft | 12 kts | 263° |
| 2026-05-08 04:30 | 33.95017 | -118.42017 | 110 ft | 15 kts | 253° |
| 2026-05-08 04:30 | 33.94969 | -118.42146 | 112 ft | 19 kts | 236° |
| 2026-05-08 04:30 | 33.94864 | -118.42262 | 111 ft | 18 kts | 202° |
| 2026-05-08 04:31 | 33.94732 | -118.42274 | 109 ft | 22 kts | 176° |
| 2026-05-08 04:31 | 33.94620 | -118.42219 | 105 ft | 7 kts | 104° |
| 2026-05-08 04:31 | 33.94615 | -118.42138 | 105 ft | 11 kts | 84° |
| 2026-05-08 04:31 | 33.94624 | -118.42026 | 102 ft | 15 kts | 84° |
| 2026-05-08 04:32 | 33.94631 | -118.41886 | 105 ft | 18 kts | 84° |
| 2026-05-08 04:32 | 33.94646 | -118.41725 | 103 ft | 21 kts | 82° |
| 2026-05-08 04:32 | 33.94667 | -118.41540 | 104 ft | 24 kts | 82° |
| 2026-05-08 04:32 | 33.94692 | -118.41332 | 103 ft | 26 kts | 82° |
| 2026-05-08 04:33 | 33.94731 | -118.41114 | 106 ft | 27 kts | 79° |
| 2026-05-08 04:33 | 33.94752 | -118.40884 | 103 ft | 29 kts | 85° |
| 2026-05-08 04:33 | 33.94775 | -118.40645 | 104 ft | 29 kts | 83° |
| 2026-05-08 04:33 | 33.94789 | -118.40502 | 105 ft | 0 kts | 83° |
| 2026-05-08 04:34 | 33.94789 | -118.40501 | 105 ft | 0 kts | 83° |
| 2026-05-08 04:34 | 33.94790 | -118.40499 | 105 ft | 1 kts | 83° |
| 2026-05-08 04:34 | 33.94726 | -118.40498 | 102 ft | 0 kts | 132° |